sensor_id;sensor_type;location;lat;lon;timestamp;P1;durP1;ratioP1;P2;durP2;ratioP2
14975;SDS011;7584;60.468;25.126;2022-09-09T00:00:40;4.23;;;2.40;;
14975;SDS011;7584;60.468;25.126;2022-09-09T00:09:01;4.47;;;2.40;;
14975;SDS011;7584;60.468;25.126;2022-09-09T00:11:32;3.10;;;2.23;;
14975;SDS011;7584;60.468;25.126;2022-09-09T00:14:02;7.87;;;1.97;;
14975;SDS011;7584;60.468;25.126;2022-09-09T00:16:32;3.20;;;2.43;;
14975;SDS011;7584;60.468;25.126;2022-09-09T00:19:08;3.23;;;2.20;;
14975;SDS011;7584;60.468;25.126;2022-09-09T00:21:39;3.40;;;2.20;;
14975;SDS011;7584;60.468;25.126;2022-09-09T00:24:18;4.53;;;2.37;;
14975;SDS011;7584;60.468;25.126;2022-09-09T00:26:47;3.10;;;2.30;;
14975;SDS011;7584;60.468;25.126;2022-09-09T00:31:38;3.27;;;2.40;;
14975;SDS011;7584;60.468;25.126;2022-09-09T00:34:14;2.63;;;2.03;;
14975;SDS011;7584;60.468;25.126;2022-09-09T00:36:42;4.87;;;2.20;;
14975;SDS011;7584;60.468;25.126;2022-09-09T00:39:16;3.07;;;2.03;;
14975;SDS011;7584;60.468;25.126;2022-09-09T00:44:16;3.17;;;2.30;;
14975;SDS011;7584;60.468;25.126;2022-09-09T00:49:23;5.07;;;2.50;;
14975;SDS011;7584;60.468;25.126;2022-09-09T00:57:32;6.03;;;2.23;;
14975;SDS011;7584;60.468;25.126;2022-09-09T01:00:14;4.60;;;2.30;;
14975;SDS011;7584;60.468;25.126;2022-09-09T01:02:58;2.93;;;2.03;;
14975;SDS011;7584;60.468;25.126;2022-09-09T01:08:03;3.60;;;2.20;;
14975;SDS011;7584;60.468;25.126;2022-09-09T01:10:34;3.47;;;2.07;;
14975;SDS011;7584;60.468;25.126;2022-09-09T01:13:01;3.00;;;2.17;;
14975;SDS011;7584;60.468;25.126;2022-09-09T01:15:29;3.67;;;2.50;;
14975;SDS011;7584;60.468;25.126;2022-09-09T01:18:06;6.03;;;2.50;;
14975;SDS011;7584;60.468;25.126;2022-09-09T01:20:39;4.83;;;2.20;;
14975;SDS011;7584;60.468;25.126;2022-09-09T01:28:27;3.13;;;1.90;;
14975;SDS011;7584;60.468;25.126;2022-09-09T01:30:53;2.67;;;1.97;;
14975;SDS011;7584;60.468;25.126;2022-09-09T01:33:20;2.73;;;1.70;;
14975;SDS011;7584;60.468;25.126;2022-09-09T01:35:47;3.03;;;1.93;;
14975;SDS011;7584;60.468;25.126;2022-09-09T01:38:13;3.07;;;2.23;;
14975;SDS011;7584;60.468;25.126;2022-09-09T01:40:39;3.37;;;2.33;;
14975;SDS011;7584;60.468;25.126;2022-09-09T01:43:04;2.90;;;2.00;;
14975;SDS011;7584;60.468;25.126;2022-09-09T01:45:31;2.10;;;1.73;;
14975;SDS011;7584;60.468;25.126;2022-09-09T01:47:57;2.73;;;1.93;;
14975;SDS011;7584;60.468;25.126;2022-09-09T01:50:22;4.13;;;1.80;;
14975;SDS011;7584;60.468;25.126;2022-09-09T01:52:55;3.93;;;1.87;;
14975;SDS011;7584;60.468;25.126;2022-09-09T01:55:24;3.10;;;2.20;;
14975;SDS011;7584;60.468;25.126;2022-09-09T02:00:37;3.80;;;2.20;;
14975;SDS011;7584;60.468;25.126;2022-09-09T02:03:27;3.10;;;2.10;;
14975;SDS011;7584;60.468;25.126;2022-09-09T02:08:20;3.63;;;1.80;;
14975;SDS011;7584;60.468;25.126;2022-09-09T02:13:30;2.70;;;2.00;;
14975;SDS011;7584;60.468;25.126;2022-09-09T02:15:58;3.10;;;2.20;;
14975;SDS011;7584;60.468;25.126;2022-09-09T02:18:35;4.60;;;2.07;;
14975;SDS011;7584;60.468;25.126;2022-09-09T02:21:02;2.23;;;1.90;;
14975;SDS011;7584;60.468;25.126;2022-09-09T02:23:28;2.70;;;1.93;;
14975;SDS011;7584;60.468;25.126;2022-09-09T02:25:53;2.53;;;1.80;;
14975;SDS011;7584;60.468;25.126;2022-09-09T02:28:20;3.40;;;2.00;;
14975;SDS011;7584;60.468;25.126;2022-09-09T02:30:49;2.40;;;1.77;;
14975;SDS011;7584;60.468;25.126;2022-09-09T02:33:20;3.50;;;1.80;;
14975;SDS011;7584;60.468;25.126;2022-09-09T02:35:48;3.27;;;1.80;;
14975;SDS011;7584;60.468;25.126;2022-09-09T02:38:15;1.77;;;1.67;;
14975;SDS011;7584;60.468;25.126;2022-09-09T02:40:41;5.03;;;2.20;;
14975;SDS011;7584;60.468;25.126;2022-09-09T02:43:06;2.33;;;1.73;;
14975;SDS011;7584;60.468;25.126;2022-09-09T02:45:34;4.30;;;2.00;;
14975;SDS011;7584;60.468;25.126;2022-09-09T02:50:32;2.47;;;1.80;;
14975;SDS011;7584;60.468;25.126;2022-09-09T02:55:57;2.30;;;1.70;;
14975;SDS011;7584;60.468;25.126;2022-09-09T02:58:23;2.10;;;1.70;;
14975;SDS011;7584;60.468;25.126;2022-09-09T03:00:50;2.40;;;1.73;;
14975;SDS011;7584;60.468;25.126;2022-09-09T03:03:16;2.53;;;1.90;;
14975;SDS011;7584;60.468;25.126;2022-09-09T03:05:42;2.80;;;1.90;;
14975;SDS011;7584;60.468;25.126;2022-09-09T03:08:08;2.57;;;1.80;;
14975;SDS011;7584;60.468;25.126;2022-09-09T03:10:34;4.03;;;2.20;;
14975;SDS011;7584;60.468;25.126;2022-09-09T03:13:00;2.47;;;1.67;;
14975;SDS011;7584;60.468;25.126;2022-09-09T03:15:25;3.20;;;2.07;;
14975;SDS011;7584;60.468;25.126;2022-09-09T03:17:54;4.93;;;2.07;;
14975;SDS011;7584;60.468;25.126;2022-09-09T03:20:19;2.63;;;1.67;;
14975;SDS011;7584;60.468;25.126;2022-09-09T03:22:44;2.83;;;1.83;;
14975;SDS011;7584;60.468;25.126;2022-09-09T03:25:10;4.23;;;2.00;;
14975;SDS011;7584;60.468;25.126;2022-09-09T03:27:35;3.20;;;2.07;;
14975;SDS011;7584;60.468;25.126;2022-09-09T03:30:00;2.23;;;1.60;;
14975;SDS011;7584;60.468;25.126;2022-09-09T03:32:28;2.60;;;1.80;;
14975;SDS011;7584;60.468;25.126;2022-09-09T03:34:54;3.63;;;2.00;;
14975;SDS011;7584;60.468;25.126;2022-09-09T03:37:19;3.07;;;1.70;;
14975;SDS011;7584;60.468;25.126;2022-09-09T03:39:45;4.17;;;2.23;;
14975;SDS011;7584;60.468;25.126;2022-09-09T03:42:13;2.70;;;2.00;;
14975;SDS011;7584;60.468;25.126;2022-09-09T03:44:39;5.50;;;2.10;;
14975;SDS011;7584;60.468;25.126;2022-09-09T03:47:04;3.37;;;1.83;;
14975;SDS011;7584;60.468;25.126;2022-09-09T03:49:31;2.40;;;2.13;;
14975;SDS011;7584;60.468;25.126;2022-09-09T03:51:56;3.30;;;1.70;;
14975;SDS011;7584;60.468;25.126;2022-09-09T03:54:23;3.23;;;1.40;;
14975;SDS011;7584;60.468;25.126;2022-09-09T03:56:48;4.27;;;1.87;;
14975;SDS011;7584;60.468;25.126;2022-09-09T03:59:13;3.37;;;1.80;;
14975;SDS011;7584;60.468;25.126;2022-09-09T04:01:39;3.17;;;2.00;;
14975;SDS011;7584;60.468;25.126;2022-09-09T04:04:05;4.13;;;2.30;;
14975;SDS011;7584;60.468;25.126;2022-09-09T04:06:30;2.60;;;1.70;;
14975;SDS011;7584;60.468;25.126;2022-09-09T04:08:55;3.80;;;2.00;;
14975;SDS011;7584;60.468;25.126;2022-09-09T04:11:21;4.17;;;2.13;;
14975;SDS011;7584;60.468;25.126;2022-09-09T04:13:46;4.43;;;2.20;;
14975;SDS011;7584;60.468;25.126;2022-09-09T04:16:11;5.27;;;2.50;;
14975;SDS011;7584;60.468;25.126;2022-09-09T04:18:38;6.77;;;2.50;;
14975;SDS011;7584;60.468;25.126;2022-09-09T04:21:04;5.93;;;2.20;;
14975;SDS011;7584;60.468;25.126;2022-09-09T04:23:30;9.00;;;2.70;;
14975;SDS011;7584;60.468;25.126;2022-09-09T04:25:56;4.73;;;2.00;;
14975;SDS011;7584;60.468;25.126;2022-09-09T04:28:23;4.73;;;2.03;;
14975;SDS011;7584;60.468;25.126;2022-09-09T04:30:48;6.67;;;2.40;;
14975;SDS011;7584;60.468;25.126;2022-09-09T04:33:14;4.60;;;2.10;;
14975;SDS011;7584;60.468;25.126;2022-09-09T04:35:43;8.90;;;2.50;;
14975;SDS011;7584;60.468;25.126;2022-09-09T04:38:09;5.57;;;2.07;;
14975;SDS011;7584;60.468;25.126;2022-09-09T04:40:34;3.13;;;1.83;;
14975;SDS011;7584;60.468;25.126;2022-09-09T04:43:00;9.07;;;2.93;;
14975;SDS011;7584;60.468;25.126;2022-09-09T04:45:26;11.73;;;2.70;;
14975;SDS011;7584;60.468;25.126;2022-09-09T04:47:51;7.57;;;2.23;;
14975;SDS011;7584;60.468;25.126;2022-09-09T04:50:16;6.20;;;2.30;;
14975;SDS011;7584;60.468;25.126;2022-09-09T04:52:42;3.17;;;2.20;;
14975;SDS011;7584;60.468;25.126;2022-09-09T04:55:07;10.97;;;2.00;;
14975;SDS011;7584;60.468;25.126;2022-09-09T04:57:34;6.60;;;1.93;;
14975;SDS011;7584;60.468;25.126;2022-09-09T04:59:59;3.63;;;2.17;;
14975;SDS011;7584;60.468;25.126;2022-09-09T05:02:25;4.83;;;1.80;;
14975;SDS011;7584;60.468;25.126;2022-09-09T05:04:50;6.97;;;2.10;;
14975;SDS011;7584;60.468;25.126;2022-09-09T05:07:16;4.23;;;1.97;;
14975;SDS011;7584;60.468;25.126;2022-09-09T05:09:41;8.70;;;2.57;;
14975;SDS011;7584;60.468;25.126;2022-09-09T05:12:06;5.70;;;1.90;;
14975;SDS011;7584;60.468;25.126;2022-09-09T05:14:32;3.80;;;2.30;;
14975;SDS011;7584;60.468;25.126;2022-09-09T05:16:57;13.20;;;2.67;;
14975;SDS011;7584;60.468;25.126;2022-09-09T05:19:23;7.23;;;2.77;;
14975;SDS011;7584;60.468;25.126;2022-09-09T05:21:48;10.53;;;2.47;;
14975;SDS011;7584;60.468;25.126;2022-09-09T05:24:14;9.03;;;2.37;;
14975;SDS011;7584;60.468;25.126;2022-09-09T05:26:40;5.30;;;2.63;;
14975;SDS011;7584;60.468;25.126;2022-09-09T05:29:05;5.63;;;2.00;;
14975;SDS011;7584;60.468;25.126;2022-09-09T05:31:31;11.50;;;2.80;;
14975;SDS011;7584;60.468;25.126;2022-09-09T05:33:57;4.67;;;2.50;;
14975;SDS011;7584;60.468;25.126;2022-09-09T05:36:23;5.83;;;2.20;;
14975;SDS011;7584;60.468;25.126;2022-09-09T05:38:49;4.83;;;2.43;;
14975;SDS011;7584;60.468;25.126;2022-09-09T05:41:15;3.50;;;1.97;;
14975;SDS011;7584;60.468;25.126;2022-09-09T05:43:41;3.83;;;2.40;;
14975;SDS011;7584;60.468;25.126;2022-09-09T05:46:27;8.47;;;1.90;;
14975;SDS011;7584;60.468;25.126;2022-09-09T05:48:52;4.43;;;2.30;;
14975;SDS011;7584;60.468;25.126;2022-09-09T05:51:19;7.13;;;2.20;;
14975;SDS011;7584;60.468;25.126;2022-09-09T05:53:46;3.67;;;2.57;;
14975;SDS011;7584;60.468;25.126;2022-09-09T05:56:16;8.37;;;3.70;;
14975;SDS011;7584;60.468;25.126;2022-09-09T05:58:42;5.17;;;1.97;;
14975;SDS011;7584;60.468;25.126;2022-09-09T06:01:22;5.07;;;1.93;;
14975;SDS011;7584;60.468;25.126;2022-09-09T06:03:48;2.47;;;1.50;;
14975;SDS011;7584;60.468;25.126;2022-09-09T06:06:14;6.37;;;1.67;;
14975;SDS011;7584;60.468;25.126;2022-09-09T06:08:41;3.10;;;1.50;;
14975;SDS011;7584;60.468;25.126;2022-09-09T06:11:13;1.80;;;1.20;;
14975;SDS011;7584;60.468;25.126;2022-09-09T06:13:39;4.07;;;1.40;;
14975;SDS011;7584;60.468;25.126;2022-09-09T06:16:11;1.50;;;1.27;;
14975;SDS011;7584;60.468;25.126;2022-09-09T06:18:36;1.90;;;1.10;;
14975;SDS011;7584;60.468;25.126;2022-09-09T06:21:03;4.40;;;1.20;;
14975;SDS011;7584;60.468;25.126;2022-09-09T06:23:29;1.10;;;0.90;;
14975;SDS011;7584;60.468;25.126;2022-09-09T06:26:02;1.47;;;0.93;;
14975;SDS011;7584;60.468;25.126;2022-09-09T06:28:27;1.30;;;0.90;;
14975;SDS011;7584;60.468;25.126;2022-09-09T06:31:03;3.97;;;0.90;;
14975;SDS011;7584;60.468;25.126;2022-09-09T06:33:33;0.60;;;0.60;;
14975;SDS011;7584;60.468;25.126;2022-09-09T06:36:00;1.30;;;0.53;;
14975;SDS011;7584;60.468;25.126;2022-09-09T06:38:25;2.37;;;0.60;;
14975;SDS011;7584;60.468;25.126;2022-09-09T06:40:54;2.93;;;0.80;;
14975;SDS011;7584;60.468;25.126;2022-09-09T06:43:20;1.07;;;0.50;;
14975;SDS011;7584;60.468;25.126;2022-09-09T06:45:52;2.20;;;0.70;;
14975;SDS011;7584;60.468;25.126;2022-09-09T06:48:18;3.43;;;0.70;;
14975;SDS011;7584;60.468;25.126;2022-09-09T06:50:43;0.70;;;0.47;;
14975;SDS011;7584;60.468;25.126;2022-09-09T06:53:08;1.38;;;0.50;;
14975;SDS011;7584;60.468;25.126;2022-09-09T06:55:33;0.50;;;0.30;;
14975;SDS011;7584;60.468;25.126;2022-09-09T06:57:59;1.50;;;0.30;;
14975;SDS011;7584;60.468;25.126;2022-09-09T07:00:25;0.68;;;0.40;;
14975;SDS011;7584;60.468;25.126;2022-09-09T07:02:55;1.13;;;0.38;;
14975;SDS011;7584;60.468;25.126;2022-09-09T07:05:22;0.95;;;0.40;;
14975;SDS011;7584;60.468;25.126;2022-09-09T07:07:47;0.47;;;0.30;;
14975;SDS011;7584;60.468;25.126;2022-09-09T07:10:13;3.53;;;0.47;;
14975;SDS011;7584;60.468;25.126;2022-09-09T07:12:38;0.65;;;0.30;;
14975;SDS011;7584;60.468;25.126;2022-09-09T07:15:03;0.25;;;0.20;;
14975;SDS011;7584;60.468;25.126;2022-09-09T07:17:29;0.32;;;0.20;;
14975;SDS011;7584;60.468;25.126;2022-09-09T07:19:54;1.35;;;0.30;;
14975;SDS011;7584;60.468;25.126;2022-09-09T07:22:19;0.47;;;0.25;;
14975;SDS011;7584;60.468;25.126;2022-09-09T07:24:45;0.28;;;0.20;;
14975;SDS011;7584;60.468;25.126;2022-09-09T07:27:10;0.40;;;0.20;;
14975;SDS011;7584;60.468;25.126;2022-09-09T07:29:35;2.58;;;0.30;;
14975;SDS011;7584;60.468;25.126;2022-09-09T07:32:01;0.50;;;0.17;;
14975;SDS011;7584;60.468;25.126;2022-09-09T07:34:27;0.30;;;0.30;;
14975;SDS011;7584;60.468;25.126;2022-09-09T07:36:52;0.98;;;0.30;;
14975;SDS011;7584;60.468;25.126;2022-09-09T07:39:18;1.13;;;0.30;;
14975;SDS011;7584;60.468;25.126;2022-09-09T07:41:47;0.95;;;0.45;;
14975;SDS011;7584;60.468;25.126;2022-09-09T07:44:19;1.08;;;0.30;;
14975;SDS011;7584;60.468;25.126;2022-09-09T07:46:46;0.43;;;0.25;;
14975;SDS011;7584;60.468;25.126;2022-09-09T07:49:12;0.45;;;0.25;;
14975;SDS011;7584;60.468;25.126;2022-09-09T07:51:39;0.30;;;0.30;;
14975;SDS011;7584;60.468;25.126;2022-09-09T07:54:07;0.45;;;0.25;;
14975;SDS011;7584;60.468;25.126;2022-09-09T07:56:34;0.63;;;0.25;;
14975;SDS011;7584;60.468;25.126;2022-09-09T07:59:00;1.90;;;0.22;;
14975;SDS011;7584;60.468;25.126;2022-09-09T08:01:33;5.75;;;0.50;;
14975;SDS011;7584;60.468;25.126;2022-09-09T08:04:02;0.60;;;0.10;;
14975;SDS011;7584;60.468;25.126;2022-09-09T08:06:28;0.43;;;0.30;;
14975;SDS011;7584;60.468;25.126;2022-09-09T08:08:54;0.20;;;0.13;;
14975;SDS011;7584;60.468;25.126;2022-09-09T08:11:20;0.45;;;0.20;;
14975;SDS011;7584;60.468;25.126;2022-09-09T08:13:46;0.40;;;0.20;;
14975;SDS011;7584;60.468;25.126;2022-09-09T08:16:14;0.65;;;0.30;;
14975;SDS011;7584;60.468;25.126;2022-09-09T08:18:40;0.40;;;0.30;;
14975;SDS011;7584;60.468;25.126;2022-09-09T08:21:13;1.70;;;0.30;;
14975;SDS011;7584;60.468;25.126;2022-09-09T08:23:42;0.20;;;0.20;;
14975;SDS011;7584;60.468;25.126;2022-09-09T08:26:11;0.38;;;0.20;;
14975;SDS011;7584;60.468;25.126;2022-09-09T08:28:37;1.15;;;0.30;;
14975;SDS011;7584;60.468;25.126;2022-09-09T08:31:10;0.40;;;0.20;;
14975;SDS011;7584;60.468;25.126;2022-09-09T08:33:35;0.47;;;0.30;;
14975;SDS011;7584;60.468;25.126;2022-09-09T08:36:03;1.77;;;0.30;;
14975;SDS011;7584;60.468;25.126;2022-09-09T08:38:29;1.48;;;0.22;;
14975;SDS011;7584;60.468;25.126;2022-09-09T08:40:54;1.05;;;0.25;;
14975;SDS011;7584;60.468;25.126;2022-09-09T08:43:26;0.38;;;0.20;;
14975;SDS011;7584;60.468;25.126;2022-09-09T08:48:30;0.40;;;0.28;;
14975;SDS011;7584;60.468;25.126;2022-09-09T08:51:01;1.80;;;0.40;;
14975;SDS011;7584;60.468;25.126;2022-09-09T08:53:28;0.28;;;0.20;;
14975;SDS011;7584;60.468;25.126;2022-09-09T08:55:58;0.40;;;0.20;;
14975;SDS011;7584;60.468;25.126;2022-09-09T08:58:34;0.30;;;0.20;;
14975;SDS011;7584;60.468;25.126;2022-09-09T09:11:20;0.38;;;0.20;;
14975;SDS011;7584;60.468;25.126;2022-09-09T09:14:01;0.50;;;0.20;;
14975;SDS011;7584;60.468;25.126;2022-09-09T09:17:03;0.50;;;0.20;;
14975;SDS011;7584;60.468;25.126;2022-09-09T09:19:20;0.73;;;0.22;;
14975;SDS011;7584;60.468;25.126;2022-09-09T09:24:16;2.28;;;0.30;;
14975;SDS011;7584;60.468;25.126;2022-09-09T09:26:43;0.93;;;0.40;;
14975;SDS011;7584;60.468;25.126;2022-09-09T09:29:13;1.05;;;0.20;;
14975;SDS011;7584;60.468;25.126;2022-09-09T09:31:41;0.20;;;0.20;;
14975;SDS011;7584;60.468;25.126;2022-09-09T09:34:07;0.20;;;0.20;;
14975;SDS011;7584;60.468;25.126;2022-09-09T09:36:54;0.75;;;0.20;;
14975;SDS011;7584;60.468;25.126;2022-09-09T09:39:26;1.98;;;0.40;;
14975;SDS011;7584;60.468;25.126;2022-09-09T09:41:52;1.40;;;0.30;;
14975;SDS011;7584;60.468;25.126;2022-09-09T09:46:52;0.60;;;0.22;;
14975;SDS011;7584;60.468;25.126;2022-09-09T09:49:18;0.65;;;0.30;;
14975;SDS011;7584;60.468;25.126;2022-09-09T09:51:43;2.47;;;0.30;;
14975;SDS011;7584;60.468;25.126;2022-09-09T09:54:27;0.57;;;0.28;;
14975;SDS011;7584;60.468;25.126;2022-09-09T09:56:54;0.30;;;0.20;;
14975;SDS011;7584;60.468;25.126;2022-09-09T10:01:53;1.05;;;0.40;;
14975;SDS011;7584;60.468;25.126;2022-09-09T10:04:20;0.80;;;0.40;;
14975;SDS011;7584;60.468;25.126;2022-09-09T10:06:47;0.60;;;0.22;;
14975;SDS011;7584;60.468;25.126;2022-09-09T10:09:26;1.33;;;0.25;;
14975;SDS011;7584;60.468;25.126;2022-09-09T10:16:59;1.88;;;0.30;;
14975;SDS011;7584;60.468;25.126;2022-09-09T10:19:34;0.47;;;0.30;;
14975;SDS011;7584;60.468;25.126;2022-09-09T10:35:35;2.28;;;0.40;;
14975;SDS011;7584;60.468;25.126;2022-09-09T10:44:06;2.38;;;0.43;;
14975;SDS011;7584;60.468;25.126;2022-09-09T10:46:17;2.28;;;0.38;;
14975;SDS011;7584;60.468;25.126;2022-09-09T10:56:22;1.55;;;0.47;;
14975;SDS011;7584;60.468;25.126;2022-09-09T11:01:48;2.15;;;0.63;;
14975;SDS011;7584;60.468;25.126;2022-09-09T11:04:11;1.20;;;0.50;;
14975;SDS011;7584;60.468;25.126;2022-09-09T11:06:40;3.13;;;0.60;;
14975;SDS011;7584;60.468;25.126;2022-09-09T11:09:08;0.77;;;0.30;;
14975;SDS011;7584;60.468;25.126;2022-09-09T11:11:42;1.13;;;0.43;;
14975;SDS011;7584;60.468;25.126;2022-09-09T11:14:15;0.52;;;0.40;;
14975;SDS011;7584;60.468;25.126;2022-09-09T11:16:48;0.77;;;0.38;;
14975;SDS011;7584;60.468;25.126;2022-09-09T11:19:17;1.63;;;0.60;;
14975;SDS011;7584;60.468;25.126;2022-09-09T11:21:48;1.95;;;0.50;;
14975;SDS011;7584;60.468;25.126;2022-09-09T11:26:58;1.67;;;0.50;;
14975;SDS011;7584;60.468;25.126;2022-09-09T11:37:23;0.38;;;0.20;;
14975;SDS011;7584;60.468;25.126;2022-09-09T11:39:58;1.00;;;0.40;;
14975;SDS011;7584;60.468;25.126;2022-09-09T11:42:25;3.13;;;0.50;;
14975;SDS011;7584;60.468;25.126;2022-09-09T11:44:51;3.05;;;0.40;;
14975;SDS011;7584;60.468;25.126;2022-09-09T11:47:19;0.38;;;0.22;;
14975;SDS011;7584;60.468;25.126;2022-09-09T11:49:45;0.55;;;0.40;;
14975;SDS011;7584;60.468;25.126;2022-09-09T11:52:11;3.72;;;0.50;;
14975;SDS011;7584;60.468;25.126;2022-09-09T11:54:44;0.63;;;0.40;;
14975;SDS011;7584;60.468;25.126;2022-09-09T11:59:55;2.70;;;0.45;;
14975;SDS011;7584;60.468;25.126;2022-09-09T12:02:25;1.02;;;0.60;;
14975;SDS011;7584;60.468;25.126;2022-09-09T12:12:23;3.05;;;0.55;;
14975;SDS011;7584;60.468;25.126;2022-09-09T12:14:59;0.68;;;0.50;;
14975;SDS011;7584;60.468;25.126;2022-09-09T12:17:26;2.50;;;0.60;;
14975;SDS011;7584;60.468;25.126;2022-09-09T12:20:02;1.83;;;0.55;;
14975;SDS011;7584;60.468;25.126;2022-09-09T12:25:09;1.73;;;0.50;;
14975;SDS011;7584;60.468;25.126;2022-09-09T12:27:44;1.20;;;0.50;;
14975;SDS011;7584;60.468;25.126;2022-09-09T12:30:14;2.75;;;0.40;;
14975;SDS011;7584;60.468;25.126;2022-09-09T12:32:40;1.52;;;0.57;;
14975;SDS011;7584;60.468;25.126;2022-09-09T12:35:13;0.80;;;0.38;;
14975;SDS011;7584;60.468;25.126;2022-09-09T12:40:22;1.40;;;0.30;;
14975;SDS011;7584;60.468;25.126;2022-09-09T12:42:47;1.08;;;0.60;;
14975;SDS011;7584;60.468;25.126;2022-09-09T12:45:31;2.40;;;0.38;;
14975;SDS011;7584;60.468;25.126;2022-09-09T12:47:58;0.73;;;0.40;;
14975;SDS011;7584;60.468;25.126;2022-09-09T12:50:38;2.05;;;0.43;;
14975;SDS011;7584;60.468;25.126;2022-09-09T12:53:22;0.98;;;0.57;;
14975;SDS011;7584;60.468;25.126;2022-09-09T12:56:08;0.55;;;0.30;;
14975;SDS011;7584;60.468;25.126;2022-09-09T12:58:36;1.38;;;0.50;;
14975;SDS011;7584;60.468;25.126;2022-09-09T13:01:02;2.35;;;0.40;;
14975;SDS011;7584;60.468;25.126;2022-09-09T13:03:30;1.65;;;0.30;;
14975;SDS011;7584;60.468;25.126;2022-09-09T13:06:10;1.15;;;0.40;;
14975;SDS011;7584;60.468;25.126;2022-09-09T13:08:36;1.67;;;0.40;;
14975;SDS011;7584;60.468;25.126;2022-09-09T13:11:03;1.73;;;0.55;;
14975;SDS011;7584;60.468;25.126;2022-09-09T13:13:31;0.75;;;0.40;;
14975;SDS011;7584;60.468;25.126;2022-09-09T13:16:00;2.05;;;0.40;;
14975;SDS011;7584;60.468;25.126;2022-09-09T13:18:29;0.52;;;0.35;;
14975;SDS011;7584;60.468;25.126;2022-09-09T13:20:55;3.53;;;0.57;;
14975;SDS011;7584;60.468;25.126;2022-09-09T13:23:23;3.08;;;0.50;;
14975;SDS011;7584;60.468;25.126;2022-09-09T13:26:33;1.27;;;0.50;;
14975;SDS011;7584;60.468;25.126;2022-09-09T13:28:39;1.70;;;0.60;;
14975;SDS011;7584;60.468;25.126;2022-09-09T13:31:05;1.75;;;0.45;;
14975;SDS011;7584;60.468;25.126;2022-09-09T13:33:35;3.45;;;0.40;;
14975;SDS011;7584;60.468;25.126;2022-09-09T13:36:09;1.25;;;0.50;;
14975;SDS011;7584;60.468;25.126;2022-09-09T13:38:36;1.17;;;0.50;;
14975;SDS011;7584;60.468;25.126;2022-09-09T13:41:06;0.93;;;0.35;;
14975;SDS011;7584;60.468;25.126;2022-09-09T13:43:37;0.73;;;0.22;;
14975;SDS011;7584;60.468;25.126;2022-09-09T13:46:22;3.65;;;0.82;;
14975;SDS011;7584;60.468;25.126;2022-09-09T13:48:59;7.43;;;0.85;;
14975;SDS011;7584;60.468;25.126;2022-09-09T13:51:28;1.27;;;0.38;;
14975;SDS011;7584;60.468;25.126;2022-09-09T13:53:54;0.95;;;0.60;;
14975;SDS011;7584;60.468;25.126;2022-09-09T13:56:19;0.47;;;0.30;;
14975;SDS011;7584;60.468;25.126;2022-09-09T13:58:45;2.60;;;0.60;;
14975;SDS011;7584;60.468;25.126;2022-09-09T14:01:12;1.70;;;0.45;;
14975;SDS011;7584;60.468;25.126;2022-09-09T14:03:38;1.60;;;0.38;;
14975;SDS011;7584;60.468;25.126;2022-09-09T14:06:03;1.77;;;0.63;;
14975;SDS011;7584;60.468;25.126;2022-09-09T14:08:28;0.90;;;0.50;;
14975;SDS011;7584;60.468;25.126;2022-09-09T14:11:01;4.25;;;0.60;;
14975;SDS011;7584;60.468;25.126;2022-09-09T14:13:27;1.30;;;0.52;;
14975;SDS011;7584;60.468;25.126;2022-09-09T14:15:52;0.80;;;0.40;;
14975;SDS011;7584;60.468;25.126;2022-09-09T14:18:18;1.65;;;0.40;;
14975;SDS011;7584;60.468;25.126;2022-09-09T14:20:44;1.98;;;0.60;;
14975;SDS011;7584;60.468;25.126;2022-09-09T14:23:10;1.67;;;0.60;;
14975;SDS011;7584;60.468;25.126;2022-09-09T14:25:35;3.72;;;0.60;;
14975;SDS011;7584;60.468;25.126;2022-09-09T14:28:01;1.63;;;0.65;;
14975;SDS011;7584;60.468;25.126;2022-09-09T14:30:27;0.50;;;0.40;;
14975;SDS011;7584;60.468;25.126;2022-09-09T14:32:52;1.98;;;0.50;;
14975;SDS011;7584;60.468;25.126;2022-09-09T14:35:17;0.82;;;0.60;;
14975;SDS011;7584;60.468;25.126;2022-09-09T14:37:43;1.35;;;0.60;;
14975;SDS011;7584;60.468;25.126;2022-09-09T14:40:09;1.40;;;0.70;;
14975;SDS011;7584;60.468;25.126;2022-09-09T14:42:36;1.58;;;0.60;;
14975;SDS011;7584;60.468;25.126;2022-09-09T14:45:02;1.13;;;0.30;;
14975;SDS011;7584;60.468;25.126;2022-09-09T14:47:27;0.77;;;0.40;;
14975;SDS011;7584;60.468;25.126;2022-09-09T14:49:52;2.67;;;0.40;;
14975;SDS011;7584;60.468;25.126;2022-09-09T14:52:18;0.82;;;0.32;;
14975;SDS011;7584;60.468;25.126;2022-09-09T14:54:43;1.27;;;0.55;;
14975;SDS011;7584;60.468;25.126;2022-09-09T14:57:09;0.40;;;0.30;;
14975;SDS011;7584;60.468;25.126;2022-09-09T14:59:34;3.33;;;0.50;;
14975;SDS011;7584;60.468;25.126;2022-09-09T15:01:59;0.65;;;0.45;;
14975;SDS011;7584;60.468;25.126;2022-09-09T15:04:29;1.35;;;0.70;;
14975;SDS011;7584;60.468;25.126;2022-09-09T15:06:54;1.50;;;0.55;;
14975;SDS011;7584;60.468;25.126;2022-09-09T15:09:19;0.45;;;0.40;;
14975;SDS011;7584;60.468;25.126;2022-09-09T15:11:44;0.60;;;0.30;;
14975;SDS011;7584;60.468;25.126;2022-09-09T15:14:10;1.83;;;0.70;;
14975;SDS011;7584;60.468;25.126;2022-09-09T15:16:37;0.70;;;0.60;;
14975;SDS011;7584;60.468;25.126;2022-09-09T15:19:03;0.70;;;0.50;;
14975;SDS011;7584;60.468;25.126;2022-09-09T15:21:29;1.58;;;0.55;;
14975;SDS011;7584;60.468;25.126;2022-09-09T15:23:55;1.80;;;1.02;;
14975;SDS011;7584;60.468;25.126;2022-09-09T15:26:20;1.85;;;1.40;;
14975;SDS011;7584;60.468;25.126;2022-09-09T15:28:46;1.33;;;1.10;;
14975;SDS011;7584;60.468;25.126;2022-09-09T15:31:22;2.17;;;1.10;;
14975;SDS011;7584;60.468;25.126;2022-09-09T15:33:51;1.63;;;0.70;;
14975;SDS011;7584;60.468;25.126;2022-09-09T15:36:21;2.47;;;0.90;;
14975;SDS011;7584;60.468;25.126;2022-09-09T15:38:47;1.47;;;0.80;;
14975;SDS011;7584;60.468;25.126;2022-09-09T15:41:13;0.80;;;0.50;;
14975;SDS011;7584;60.468;25.126;2022-09-09T15:43:38;0.90;;;0.70;;
14975;SDS011;7584;60.468;25.126;2022-09-09T15:48:53;1.03;;;0.67;;
14975;SDS011;7584;60.468;25.126;2022-09-09T15:51:19;1.43;;;0.60;;
14975;SDS011;7584;60.468;25.126;2022-09-09T15:53:45;1.73;;;0.80;;
14975;SDS011;7584;60.468;25.126;2022-09-09T15:56:10;0.90;;;0.60;;
14975;SDS011;7584;60.468;25.126;2022-09-09T15:58:35;2.50;;;0.80;;
14975;SDS011;7584;60.468;25.126;2022-09-09T16:01:07;0.70;;;0.60;;
14975;SDS011;7584;60.468;25.126;2022-09-09T16:03:37;2.20;;;0.80;;
14975;SDS011;7584;60.468;25.126;2022-09-09T16:06:03;0.53;;;0.50;;
14975;SDS011;7584;60.468;25.126;2022-09-09T16:08:33;0.90;;;0.60;;
14975;SDS011;7584;60.468;25.126;2022-09-09T16:11:08;1.03;;;0.80;;
14975;SDS011;7584;60.468;25.126;2022-09-09T16:13:37;1.80;;;0.63;;
14975;SDS011;7584;60.468;25.126;2022-09-09T16:16:04;2.03;;;0.90;;
14975;SDS011;7584;60.468;25.126;2022-09-09T16:18:36;4.53;;;0.83;;
14975;SDS011;7584;60.468;25.126;2022-09-09T16:21:01;1.07;;;0.53;;
14975;SDS011;7584;60.468;25.126;2022-09-09T16:23:28;1.17;;;0.60;;
14975;SDS011;7584;60.468;25.126;2022-09-09T16:25:56;1.70;;;0.77;;
14975;SDS011;7584;60.468;25.126;2022-09-09T16:28:21;0.80;;;0.80;;
14975;SDS011;7584;60.468;25.126;2022-09-09T16:30:47;1.47;;;0.70;;
14975;SDS011;7584;60.468;25.126;2022-09-09T16:33:12;0.60;;;0.50;;
14975;SDS011;7584;60.468;25.126;2022-09-09T16:35:40;1.27;;;0.60;;
14975;SDS011;7584;60.468;25.126;2022-09-09T16:38:05;1.20;;;0.60;;
14975;SDS011;7584;60.468;25.126;2022-09-09T16:40:33;2.47;;;0.93;;
14975;SDS011;7584;60.468;25.126;2022-09-09T16:42:59;4.23;;;1.10;;
14975;SDS011;7584;60.468;25.126;2022-09-09T16:45:24;1.70;;;0.70;;
14975;SDS011;7584;60.468;25.126;2022-09-09T16:47:49;1.43;;;0.70;;
14975;SDS011;7584;60.468;25.126;2022-09-09T16:50:15;3.50;;;0.87;;
14975;SDS011;7584;60.468;25.126;2022-09-09T16:52:40;2.63;;;0.70;;
14975;SDS011;7584;60.468;25.126;2022-09-09T16:55:05;2.80;;;1.00;;
14975;SDS011;7584;60.468;25.126;2022-09-09T16:57:31;1.27;;;0.80;;